createdAt,value
2018-09-03T00:01:54.257Z,13.94
2018-09-03T00:04:24.063Z,14.00
2018-09-03T00:06:53.887Z,14.18
2018-09-03T00:09:23.774Z,14.23
2018-09-03T00:11:53.624Z,14.34
2018-09-03T00:14:23.451Z,14.28
2018-09-03T00:16:53.443Z,14.30
2018-09-03T00:19:24.084Z,14.28
2018-09-03T00:21:53.945Z,14.30
2018-09-03T00:24:23.721Z,14.28
2018-09-03T00:26:53.606Z,14.22
2018-09-03T00:29:23.812Z,14.20
2018-09-03T00:31:59.038Z,14.36
2018-09-03T00:34:34.009Z,14.25
2018-09-03T00:37:09.031Z,14.32
2018-09-03T00:39:44.261Z,14.33
2018-09-03T00:42:19.900Z,14.25
2018-09-03T00:44:55.428Z,14.16
2018-09-03T00:47:25.305Z,14.24
2018-09-03T00:49:55.225Z,14.27
2018-09-03T00:52:25.421Z,14.21
2018-09-03T00:54:55.941Z,14.20
2018-09-03T00:57:25.757Z,14.27
2018-09-03T00:59:55.605Z,14.21
2018-09-03T01:02:25.549Z,14.08
2018-09-03T01:04:55.420Z,14.27
2018-09-03T01:07:26.117Z,14.25
2018-09-03T01:09:55.925Z,14.33
2018-09-03T01:12:25.780Z,14.26
2018-09-03T01:14:55.631Z,14.14
2018-09-03T01:17:25.460Z,14.16
2018-09-03T01:19:55.462Z,14.26
2018-09-03T01:22:25.342Z,14.21
2018-09-03T01:24:55.163Z,14.23
2018-09-03T01:27:25.001Z,14.33
2018-09-03T01:29:54.819Z,14.29
2018-09-03T01:32:24.815Z,14.32
2018-09-03T01:34:54.621Z,14.40
2018-09-03T01:37:24.477Z,14.30
2018-09-03T01:39:54.360Z,14.01
2018-09-03T01:42:24.384Z,13.88
2018-09-03T01:44:54.388Z,13.93
2018-09-03T01:47:24.197Z,13.96
2018-09-03T01:49:54.029Z,13.78
2018-09-03T01:52:23.853Z,13.63
2018-09-03T01:54:53.685Z,13.61
2018-09-03T01:57:23.551Z,13.53
2018-09-03T01:59:53.373Z,13.55
2018-09-03T02:02:25.004Z,13.55
2018-09-03T02:04:54.887Z,13.55
2018-09-03T02:07:24.799Z,13.56
2018-09-03T02:09:54.766Z,13.60
2018-09-03T02:12:25.123Z,13.70
2018-09-03T02:14:55.015Z,13.78
2018-09-03T02:17:25.063Z,13.66
2018-09-03T02:19:54.983Z,13.67
2018-09-03T02:22:25.443Z,13.62
2018-09-03T02:24:55.329Z,13.70
2018-09-03T02:27:25.145Z,13.75
2018-09-03T02:29:55.163Z,13.82
2018-09-03T02:32:24.995Z,13.98
2018-09-03T02:34:54.781Z,14.01
2018-09-03T02:37:24.700Z,14.01
2018-09-03T02:39:54.886Z,14.13
2018-09-03T02:42:25.098Z,14.24
2018-09-03T02:44:55.049Z,14.29
2018-09-03T02:47:25.617Z,14.09
2018-09-03T02:49:55.582Z,14.09
2018-09-03T02:52:26.210Z,14.14
2018-09-03T02:54:56.139Z,14.20
2018-09-03T02:57:26.172Z,14.13
2018-09-03T02:59:56.722Z,14.12
2018-09-03T03:02:26.706Z,14.06
2018-09-03T03:04:56.803Z,14.06
2018-09-03T03:07:27.397Z,14.15
2018-09-03T03:09:57.257Z,14.24
2018-09-03T03:12:27.177Z,14.21
2018-09-03T03:14:58.012Z,14.26
2018-09-03T03:17:28.034Z,14.39
2018-09-03T03:19:57.996Z,14.37
2018-09-03T03:22:27.921Z,14.42
2018-09-03T03:24:57.791Z,14.43
2018-09-03T03:27:27.764Z,14.38
2018-09-03T03:33:34.004Z,14.39
2018-09-03T03:36:04.604Z,14.46
2018-09-03T03:38:34.503Z,14.40
2018-09-03T03:41:06.183Z,14.39
2018-09-03T03:43:36.380Z,14.34
2018-09-03T03:46:06.426Z,14.31
2018-09-03T03:48:36.455Z,14.31
2018-09-03T03:51:06.532Z,14.40
2018-09-03T03:53:36.436Z,14.45
2018-09-03T03:56:06.407Z,14.54
2018-09-03T03:58:36.465Z,14.42
2018-09-03T04:01:06.518Z,14.46
2018-09-03T04:03:36.418Z,14.51
2018-09-03T04:06:06.338Z,14.63
2018-09-03T04:08:36.162Z,14.55
2018-09-03T04:11:07.050Z,14.40
2018-09-03T04:13:36.890Z,14.29
2018-09-03T04:16:07.148Z,14.08
2018-09-03T04:18:37.445Z,14.09
2018-09-03T04:21:08.291Z,13.97
2018-09-03T04:23:38.816Z,13.74
2018-09-03T04:26:08.739Z,13.67
2018-09-03T04:28:38.730Z,13.58
2018-09-03T04:31:08.806Z,13.45
2018-09-03T04:33:38.799Z,13.38
2018-09-03T04:36:08.806Z,13.43
2018-09-03T04:38:38.798Z,13.43
2018-09-03T04:41:09.687Z,13.40
2018-09-03T04:43:40.065Z,13.37
2018-09-03T04:46:10.051Z,13.31
2018-09-03T04:48:40.291Z,13.37
2018-09-03T04:51:10.450Z,13.43
2018-09-03T04:53:40.431Z,13.45
2018-09-03T04:56:10.383Z,13.40
2018-09-03T04:58:40.345Z,13.43
2018-09-03T05:01:10.314Z,13.60
2018-09-03T05:03:40.517Z,13.60
2018-09-03T05:06:10.705Z,13.54
2018-09-03T05:08:41.537Z,13.53
2018-09-03T05:11:11.505Z,13.54
2018-09-03T05:13:41.303Z,13.62
2018-09-03T05:16:11.196Z,13.56
2018-09-03T05:18:41.075Z,13.42
2018-09-03T05:21:11.094Z,13.48
2018-09-03T05:23:41.119Z,13.49
2018-09-03T05:26:10.987Z,13.54
2018-09-03T05:28:40.811Z,13.69
2018-09-03T05:31:10.602Z,13.83
2018-09-03T05:33:41.357Z,13.97
2018-09-03T05:36:11.557Z,13.99
2018-09-03T05:38:41.389Z,13.96
2018-09-03T05:41:11.147Z,14.08
2018-09-03T05:43:41.031Z,14.03
2018-09-03T05:46:11.288Z,13.96
2018-09-03T05:48:41.134Z,14.12
2018-09-03T05:51:10.949Z,14.16
2018-09-03T05:53:40.708Z,14.28
2018-09-03T05:56:10.900Z,14.47
2018-09-03T05:58:40.754Z,14.66
2018-09-03T06:01:11.221Z,14.65
2018-09-03T06:03:41.031Z,14.81
2018-09-03T06:06:11.408Z,15.02
2018-09-03T06:08:41.337Z,15.25
2018-09-03T06:11:11.555Z,15.55
2018-09-03T06:13:41.503Z,15.76
2018-09-03T06:16:11.333Z,15.68
2018-09-03T06:18:41.196Z,15.44
2018-09-03T06:21:11.093Z,15.39
2018-09-03T06:23:40.887Z,15.40
2018-09-03T06:26:10.739Z,15.13
2018-09-03T06:28:40.549Z,14.92
2018-09-03T06:31:11.112Z,14.87
2018-09-03T06:33:41.003Z,14.69
2018-09-03T06:36:10.871Z,14.56
2018-09-03T06:38:40.723Z,14.52
2018-09-03T06:41:10.635Z,14.38
2018-09-03T06:43:41.103Z,14.40
2018-09-03T06:46:10.943Z,14.33
2018-09-03T06:48:41.503Z,14.32
2018-09-03T06:51:11.409Z,14.23
2018-09-03T06:53:41.216Z,14.34
2018-09-03T06:56:10.995Z,14.37
2018-09-03T06:58:41.111Z,14.41
2018-09-03T07:01:11.047Z,14.39
2018-09-03T07:03:40.844Z,14.53
2018-09-03T07:06:10.640Z,14.55
2018-09-03T07:08:41.003Z,14.46
2018-09-03T07:11:11.790Z,14.51
2018-09-03T07:13:41.633Z,14.57
2018-09-03T07:16:11.469Z,14.62
2018-09-03T07:18:41.447Z,14.76
2018-09-03T07:21:11.422Z,14.90
2018-09-03T07:23:41.239Z,15.15
2018-09-03T07:26:11.049Z,15.10
2018-09-03T07:28:41.118Z,15.11
2018-09-03T07:31:11.079Z,15.20
2018-09-03T07:33:41.580Z,15.25
2018-09-03T07:36:11.369Z,15.43
2018-09-03T07:38:41.377Z,15.19
2018-09-03T07:41:11.534Z,15.29
2018-09-03T07:43:41.453Z,15.37
2018-09-03T07:46:11.271Z,15.58
2018-09-03T07:48:41.087Z,15.61
2018-09-03T07:51:10.925Z,15.76
2018-09-03T07:53:40.915Z,15.70
2018-09-03T07:56:10.709Z,15.47
2018-09-03T07:58:40.576Z,15.48
2018-09-03T08:01:10.888Z,15.67
2018-09-03T08:03:40.833Z,15.84
2018-09-03T08:06:11.111Z,15.94
2018-09-03T08:08:40.932Z,15.91
2018-09-03T08:11:10.824Z,15.65
2018-09-03T08:13:41.862Z,15.67
2018-09-03T08:16:12.304Z,15.82
2018-09-03T08:18:42.452Z,15.63
2018-09-03T08:21:12.214Z,15.55
2018-09-03T08:23:42.092Z,15.51
2018-09-03T08:26:11.838Z,15.58
2018-09-03T08:28:41.949Z,15.83
2018-09-03T08:31:11.766Z,15.67
2018-09-03T08:33:41.534Z,15.71
2018-09-03T08:36:11.314Z,15.95
2018-09-03T08:38:41.114Z,15.99
2018-09-03T08:41:11.034Z,15.99
2018-09-03T08:43:40.933Z,15.98
2018-09-03T08:46:10.711Z,16.00
2018-09-03T08:48:40.538Z,15.83
2018-09-03T08:51:10.329Z,15.98
2018-09-03T08:53:40.496Z,16.13
2018-09-03T08:56:10.367Z,16.22
2018-09-03T08:58:40.257Z,16.41
2018-09-03T09:01:10.060Z,16.68
2018-09-03T09:03:41.591Z,16.79
2018-09-03T09:06:11.924Z,16.56
2018-09-03T09:08:41.959Z,16.83
2018-09-03T09:11:11.849Z,16.98
2018-09-03T09:13:41.969Z,17.34
2018-09-03T09:16:11.776Z,17.61
2018-09-03T09:18:41.604Z,17.88
2018-09-03T09:21:11.431Z,18.16
2018-09-03T09:23:41.199Z,18.34
2018-09-03T09:26:11.011Z,18.13
2018-09-03T09:28:41.439Z,18.27
2018-09-03T09:31:11.916Z,18.33
2018-09-03T09:33:42.737Z,18.66
2018-09-03T09:36:13.097Z,18.62
2018-09-03T09:38:43.474Z,18.59
2018-09-03T09:41:13.828Z,18.16
2018-09-03T09:43:43.861Z,17.97
2018-09-03T09:46:13.677Z,17.99
2018-09-03T09:48:43.736Z,17.59
2018-09-03T09:51:13.808Z,17.64
2018-09-03T09:53:43.700Z,17.93
2018-09-03T09:56:13.584Z,17.84
2018-09-03T09:58:43.482Z,17.83
2018-09-03T10:01:18.266Z,18.02
2018-09-03T10:03:48.160Z,17.89
2018-09-03T10:06:17.934Z,18.11
2018-09-03T10:08:47.882Z,18.15
2018-09-03T10:11:17.668Z,18.39
2018-09-03T10:13:47.554Z,18.80
2018-09-03T10:16:18.202Z,18.81
2018-09-03T10:18:48.065Z,18.80
2018-09-03T10:21:18.487Z,19.10
2018-09-03T10:23:48.951Z,19.60
2018-09-03T10:26:19.390Z,19.99
2018-09-03T10:28:50.142Z,20.18
2018-09-03T10:31:20.571Z,20.35
2018-09-03T10:33:51.135Z,20.33
2018-09-03T10:36:21.612Z,20.09
2018-09-03T10:38:51.921Z,20.13
2018-09-03T10:41:22.353Z,20.07
2018-09-03T10:43:52.875Z,20.23
2018-09-03T10:46:23.215Z,20.33
2018-09-03T10:48:53.529Z,20.48
2018-09-03T10:51:23.957Z,20.58
2018-09-03T10:53:54.485Z,20.93
2018-09-03T10:56:24.877Z,21.40
2018-09-03T10:58:55.233Z,21.29
2018-09-03T11:01:26.235Z,21.61
2018-09-03T11:03:56.543Z,21.43
2018-09-03T11:06:26.881Z,21.60
2018-09-03T11:08:57.261Z,21.40
2018-09-03T11:11:27.629Z,21.63
2018-09-03T11:13:57.965Z,21.81
2018-09-03T11:16:28.251Z,21.39
2018-09-03T11:18:58.551Z,21.55
2018-09-03T11:21:29.197Z,21.74
2018-09-03T11:23:59.638Z,21.76
2018-09-03T11:26:30.139Z,21.99
2018-09-03T11:29:00.598Z,22.14
2018-09-03T11:31:30.943Z,22.58
2018-09-03T11:34:01.263Z,22.77
2018-09-03T11:36:31.566Z,22.60
2018-09-03T11:39:02.239Z,22.59
2018-09-03T11:41:32.573Z,22.49
2018-09-03T11:44:03.018Z,22.77
2018-09-03T11:46:33.694Z,23.26
2018-09-03T11:49:04.147Z,23.09
2018-09-03T11:51:34.566Z,22.71
2018-09-03T11:54:05.322Z,22.31
2018-09-03T11:56:36.069Z,21.71
2018-09-03T11:59:06.680Z,21.18
2018-09-03T12:01:37.036Z,21.12
2018-09-03T12:04:07.738Z,20.23
2018-09-03T12:06:38.140Z,19.85
2018-09-03T12:09:10.700Z,19.49
2018-09-03T12:11:41.306Z,19.53
2018-09-03T12:14:20.604Z,19.53
2018-09-03T12:16:51.031Z,19.39
2018-09-03T12:19:21.405Z,19.18
2018-09-03T12:21:51.777Z,18.93
2018-09-03T12:24:22.536Z,18.78
2018-09-03T12:26:52.922Z,18.69
2018-09-03T12:29:23.548Z,18.73
2018-09-03T12:31:53.964Z,19.09
2018-09-03T12:34:24.348Z,19.09
2018-09-03T12:36:54.751Z,19.15
2018-09-03T12:39:25.280Z,19.18
2018-09-03T12:41:55.684Z,19.62
2018-09-03T12:44:26.013Z,19.83
2018-09-03T12:46:56.350Z,19.76
2018-09-03T12:49:26.704Z,20.27
2018-09-03T12:51:57.065Z,20.75
2018-09-03T12:54:27.395Z,20.79
2018-09-03T12:56:57.954Z,20.81
2018-09-03T12:59:28.341Z,20.52
2018-09-03T13:01:58.738Z,20.49
2018-09-03T13:04:29.169Z,19.96
2018-09-03T13:06:59.696Z,19.96
2018-09-03T13:09:30.446Z,20.10
2018-09-03T13:12:00.912Z,20.22
2018-09-03T13:14:31.656Z,20.38
2018-09-03T13:17:02.372Z,20.29
2018-09-03T13:19:32.722Z,20.54
2018-09-03T13:22:03.070Z,20.54
2018-09-03T13:24:33.473Z,20.33
2018-09-03T13:27:04.004Z,20.50
2018-09-03T13:29:34.527Z,20.24
2018-09-03T13:32:04.903Z,20.44
2018-09-03T13:34:35.524Z,20.46
2018-09-03T13:37:06.640Z,20.40
2018-09-03T13:39:36.982Z,20.41
2018-09-03T13:42:07.813Z,20.39
2018-09-03T13:44:38.265Z,20.22
2018-09-03T13:47:08.606Z,20.31
2018-09-03T13:49:38.939Z,20.02
2018-09-03T13:52:09.300Z,20.00
2018-09-03T13:54:39.662Z,19.91
2018-09-03T13:57:10.186Z,20.07
2018-09-03T13:59:40.606Z,20.48
2018-09-03T14:02:11.318Z,20.66
2018-09-03T14:04:41.638Z,20.68
2018-09-03T14:07:12.494Z,20.87
2018-09-03T14:09:43.046Z,21.12
2018-09-03T14:12:13.667Z,21.32
2018-09-03T14:14:44.183Z,20.76
2018-09-03T14:17:14.615Z,20.93
2018-09-03T14:19:44.960Z,20.80
2018-09-03T14:22:15.380Z,20.79
2018-09-03T14:24:45.926Z,21.07
2018-09-03T14:27:16.276Z,21.15
2018-09-03T14:29:46.602Z,21.27
2018-09-03T14:32:16.989Z,21.11
2018-09-03T14:34:47.314Z,21.08
2018-09-03T14:37:17.620Z,20.80
2018-09-03T14:39:47.980Z,20.35
2018-09-03T14:42:18.314Z,20.72
2018-09-03T14:44:48.663Z,21.00
2018-09-03T14:47:19.032Z,21.34
2018-09-03T14:49:49.454Z,21.46
2018-09-03T14:52:20.040Z,21.48
2018-09-03T14:54:50.407Z,21.58
2018-09-03T14:57:20.765Z,21.58
2018-09-03T14:59:51.141Z,21.64
2018-09-03T15:02:21.582Z,21.84
2018-09-03T15:04:52.484Z,21.76
2018-09-03T15:07:22.861Z,21.78
2018-09-03T15:09:53.204Z,21.98
2018-09-03T15:12:23.569Z,21.93
2018-09-03T15:14:54.066Z,21.85
2018-09-03T15:17:24.642Z,21.46
2018-09-03T15:19:54.952Z,21.18
2018-09-03T15:22:25.279Z,21.26
2018-09-03T15:24:55.635Z,21.35
2018-09-03T15:27:26.041Z,21.27
2018-09-03T15:29:56.486Z,21.19
2018-09-03T15:32:27.183Z,21.32
2018-09-03T15:34:57.545Z,21.32
2018-09-03T15:37:28.017Z,21.52
2018-09-03T15:39:58.394Z,21.44
2018-09-03T15:42:28.793Z,21.50
2018-09-03T15:44:59.187Z,21.67
2018-09-03T15:47:29.592Z,21.53
2018-09-03T15:50:00.115Z,21.60
2018-09-03T15:52:30.399Z,21.58
2018-09-03T15:55:00.781Z,21.48
2018-09-03T15:57:31.149Z,21.43
2018-09-03T16:00:01.470Z,21.49
2018-09-03T16:02:31.859Z,21.40
2018-09-03T16:05:02.155Z,21.36
2018-09-03T16:07:32.511Z,21.32
2018-09-03T16:10:02.880Z,21.53
2018-09-03T16:12:33.513Z,21.47
2018-09-03T16:15:03.931Z,21.39
2018-09-03T16:17:34.323Z,21.30
2018-09-03T16:20:05.289Z,21.15
2018-09-03T16:22:35.741Z,21.13
2018-09-03T16:25:06.520Z,20.75
2018-09-03T16:27:36.914Z,20.71
2018-09-03T16:30:07.526Z,20.67
2018-09-03T16:32:38.538Z,20.75
2018-09-03T16:35:09.120Z,20.73
2018-09-03T16:37:39.509Z,20.72
2018-09-03T16:40:10.660Z,20.72
2018-09-03T16:42:41.182Z,20.41
2018-09-03T16:45:12.067Z,20.32
2018-09-03T16:47:42.620Z,20.31
2018-09-03T16:50:13.215Z,20.16
2018-09-03T16:52:43.674Z,20.00
2018-09-03T16:55:14.117Z,20.02
2018-09-03T16:57:44.529Z,20.12
2018-09-03T17:00:14.960Z,20.10
2018-09-03T17:02:45.370Z,20.12
2018-09-03T17:05:16.053Z,20.00
2018-09-03T17:07:46.513Z,20.01
2018-09-03T17:10:17.175Z,19.56
2018-09-03T17:12:47.621Z,19.57
2018-09-03T17:15:18.028Z,19.66
2018-09-03T17:17:48.429Z,19.64
2018-09-03T17:20:19.005Z,19.53
2018-09-03T17:22:49.443Z,19.47
2018-09-03T17:25:19.854Z,19.40
2018-09-03T17:27:50.237Z,19.23
2018-09-03T17:30:21.186Z,19.03
2018-09-03T17:32:51.783Z,19.06
2018-09-03T17:35:22.491Z,19.00
2018-09-03T17:37:52.887Z,19.07
2018-09-03T17:40:23.297Z,19.08
2018-09-03T17:42:53.767Z,19.05
2018-09-03T17:45:24.223Z,18.96
2018-09-03T17:47:54.673Z,19.02
2018-09-03T17:50:25.088Z,19.02
2018-09-03T17:52:55.528Z,18.77
2018-09-03T17:55:26.146Z,18.58
2018-09-03T17:57:56.600Z,18.58
2018-09-03T18:00:27.225Z,18.69
2018-09-03T18:02:57.590Z,18.75
2018-09-03T18:05:27.940Z,18.75
2018-09-03T18:07:58.226Z,18.66
2018-09-03T18:10:28.524Z,18.70
2018-09-03T18:12:59.407Z,18.70
2018-09-03T18:15:29.818Z,18.72
2018-09-03T18:18:00.348Z,18.69
2018-09-03T18:20:30.764Z,18.68
2018-09-03T18:23:01.225Z,18.63
2018-09-03T18:25:31.628Z,18.32
2018-09-03T18:28:02.236Z,18.06
2018-09-03T18:30:32.914Z,17.97
2018-09-03T18:33:03.387Z,17.93
2018-09-03T18:35:33.240Z,17.88
2018-09-03T18:38:03.730Z,18.00
2018-09-03T18:40:34.501Z,18.07
2018-09-03T18:43:05.830Z,18.05
2018-09-03T18:45:36.198Z,18.05
2018-09-03T18:48:06.884Z,18.17
2018-09-03T18:50:37.610Z,18.17
2018-09-03T18:53:08.266Z,18.16
2018-09-03T18:55:38.681Z,18.10
2018-09-03T18:58:09.134Z,18.18
2018-09-03T19:00:39.781Z,18.08
2018-09-03T19:03:10.530Z,18.18
2018-09-03T19:05:41.398Z,18.28
2018-09-03T19:08:12.134Z,18.35
2018-09-03T19:10:42.570Z,18.26
2018-09-03T19:13:13.304Z,18.20
2018-09-03T19:15:43.992Z,18.15
2018-09-03T19:18:14.416Z,18.20
2018-09-03T19:20:45.692Z,18.15
2018-09-03T19:23:16.480Z,18.19
2018-09-03T19:25:47.232Z,18.16
2018-09-03T19:28:17.920Z,18.09
2018-09-03T19:30:48.748Z,18.05
2018-09-03T19:33:19.428Z,18.00
2018-09-03T19:35:50.524Z,17.98
2018-09-03T19:38:20.988Z,17.91
2018-09-03T19:40:51.316Z,18.02
2018-09-03T19:43:21.642Z,17.97
2018-09-03T19:45:52.010Z,17.77
2018-09-03T19:48:23.090Z,17.75
2018-09-03T19:50:52.928Z,17.81
2018-09-03T19:53:23.326Z,17.69
2018-09-03T19:55:54.062Z,17.77
2018-09-03T19:58:25.011Z,17.57
2018-09-03T20:00:55.160Z,17.40
2018-09-03T20:03:25.024Z,17.25
2018-09-03T20:05:54.908Z,17.06
2018-09-03T20:08:24.951Z,17.14
2018-09-03T20:10:55.065Z,17.07
2018-09-03T20:13:25.332Z,17.07
2018-09-03T20:15:55.342Z,17.12
2018-09-03T20:18:25.154Z,17.12
2018-09-03T20:20:55.306Z,17.09
2018-09-03T20:23:25.183Z,17.06
2018-09-03T20:25:55.453Z,17.02
2018-09-03T20:28:25.459Z,16.90
2018-09-03T20:30:55.812Z,16.94
2018-09-03T20:33:25.870Z,17.04
2018-09-03T20:35:55.734Z,16.84
2018-09-03T20:38:25.710Z,16.78
2018-09-03T20:40:55.534Z,16.71
2018-09-03T20:43:25.411Z,16.68
2018-09-03T20:45:55.410Z,16.69
2018-09-03T20:48:25.299Z,16.72
2018-09-03T20:50:55.114Z,16.64
2018-09-03T20:53:25.022Z,16.75
2018-09-03T20:55:54.951Z,16.77
2018-09-03T20:58:24.846Z,16.70
2018-09-03T21:00:55.490Z,16.57
2018-09-03T21:03:25.330Z,16.43
2018-09-03T21:05:55.210Z,16.52
2018-09-03T21:08:25.195Z,16.43
2018-09-03T21:10:55.235Z,16.41
2018-09-03T21:13:25.056Z,16.43
2018-09-03T21:15:54.866Z,16.36
2018-09-03T21:18:24.672Z,16.32
2018-09-03T21:21:58.470Z,16.39
2018-09-03T21:24:28.406Z,16.20
2018-09-03T21:26:58.522Z,16.21
2018-09-03T21:29:28.290Z,16.30
2018-09-03T21:31:58.194Z,15.94
2018-09-03T21:34:28.012Z,15.64
2018-09-03T21:36:57.813Z,15.42
2018-09-03T21:39:27.633Z,15.36
2018-09-03T21:41:57.414Z,15.54
2018-09-03T21:44:27.407Z,15.53
2018-09-03T21:46:57.195Z,15.60
2018-09-03T21:49:27.448Z,15.63
2018-09-03T21:51:57.343Z,15.65
2018-09-03T21:54:27.297Z,15.69
2018-09-03T21:56:57.051Z,15.63
2018-09-03T21:59:26.843Z,15.70
2018-09-03T22:01:56.724Z,15.71
2018-09-03T22:04:26.545Z,15.75
2018-09-03T22:06:56.341Z,15.77
2018-09-03T22:09:26.147Z,15.70
2018-09-03T22:11:55.971Z,15.70
2018-09-03T22:14:25.895Z,15.84
2018-09-03T22:16:55.683Z,15.83
2018-09-03T22:19:25.508Z,15.46
2018-09-03T22:21:55.427Z,15.33
2018-09-03T22:24:25.639Z,15.15
2018-09-03T22:26:56.116Z,15.16
2018-09-03T22:29:26.042Z,15.20
2018-09-03T22:31:55.812Z,15.13
2018-09-03T22:34:25.738Z,15.00
2018-09-03T22:36:56.233Z,15.01
2018-09-03T22:39:26.467Z,15.15
2018-09-03T22:41:56.312Z,15.13
2018-09-03T22:44:26.129Z,15.13
2018-09-03T22:46:55.952Z,15.31
2018-09-03T22:49:25.764Z,15.21
2018-09-03T22:51:55.632Z,15.34
2018-09-03T22:54:25.698Z,15.28
2018-09-03T22:56:55.548Z,14.98
2018-09-03T22:59:25.483Z,14.89
2018-09-03T23:01:55.299Z,14.90
2018-09-03T23:04:25.230Z,14.95
2018-09-03T23:06:55.030Z,14.71
2018-09-03T23:09:24.846Z,14.48
2018-09-03T23:11:55.044Z,14.32
2018-09-03T23:14:24.842Z,14.24
2018-09-03T23:16:55.020Z,14.26
2018-09-03T23:19:24.816Z,14.46
2018-09-03T23:21:54.908Z,14.54
2018-09-03T23:24:24.868Z,14.60
2018-09-03T23:26:54.645Z,14.81
2018-09-03T23:29:24.512Z,14.75
2018-09-03T23:31:54.640Z,14.91
2018-09-03T23:34:24.828Z,14.84
2018-09-03T23:36:54.712Z,14.72
2018-09-03T23:39:24.562Z,14.63
2018-09-03T23:41:54.424Z,14.51
2018-09-03T23:44:24.552Z,14.48
2018-09-03T23:46:54.330Z,14.47
2018-09-03T23:49:24.091Z,14.58
2018-09-03T23:51:53.906Z,14.53
2018-09-03T23:54:23.647Z,14.26
2018-09-03T23:56:53.529Z,14.54
2018-09-03T23:59:23.375Z,14.53
